sensor_id;sensor_type;location;lat;lon;timestamp;temperature;humidity
28763;DHT22;15918;51.270;6.522;2023-03-24T00:00:17;14.80;72.30
28763;DHT22;15918;51.270;6.522;2023-03-24T00:02:44;14.80;72.30
28763;DHT22;15918;51.270;6.522;2023-03-24T00:05:13;14.80;73.10
28763;DHT22;15918;51.270;6.522;2023-03-24T00:07:39;14.80;72.40
28763;DHT22;15918;51.270;6.522;2023-03-24T00:10:09;14.80;72.40
28763;DHT22;15918;51.270;6.522;2023-03-24T00:12:36;14.80;72.40
28763;DHT22;15918;51.270;6.522;2023-03-24T00:15:04;14.80;72.40
28763;DHT22;15918;51.270;6.522;2023-03-24T00:17:30;14.80;72.40
28763;DHT22;15918;51.270;6.522;2023-03-24T00:19:56;14.80;73.20
28763;DHT22;15918;51.270;6.522;2023-03-24T00:22:22;14.80;72.50
28763;DHT22;15918;51.270;6.522;2023-03-24T00:24:47;14.80;72.60
28763;DHT22;15918;51.270;6.522;2023-03-24T00:27:14;14.80;72.60
28763;DHT22;15918;51.270;6.522;2023-03-24T00:29:42;14.80;73.40
28763;DHT22;15918;51.270;6.522;2023-03-24T00:32:08;14.80;72.60
28763;DHT22;15918;51.270;6.522;2023-03-24T00:34:33;14.80;72.70
28763;DHT22;15918;51.270;6.522;2023-03-24T00:37:03;14.80;72.70
28763;DHT22;15918;51.270;6.522;2023-03-24T00:39:29;14.80;72.80
28763;DHT22;15918;51.270;6.522;2023-03-24T00:41:55;14.80;72.80
28763;DHT22;15918;51.270;6.522;2023-03-24T00:44:23;14.80;72.90
28763;DHT22;15918;51.270;6.522;2023-03-24T00:46:50;14.80;72.90
28763;DHT22;15918;51.270;6.522;2023-03-24T00:49:27;14.80;72.90
28763;DHT22;15918;51.270;6.522;2023-03-24T00:52:17;14.80;72.90
28763;DHT22;15918;51.270;6.522;2023-03-24T00:54:45;14.80;73.00
28763;DHT22;15918;51.270;6.522;2023-03-24T00:57:12;14.80;73.10
28763;DHT22;15918;51.270;6.522;2023-03-24T00:59:38;14.80;73.10
28763;DHT22;15918;51.270;6.522;2023-03-24T01:02:08;14.80;73.10
28763;DHT22;15918;51.270;6.522;2023-03-24T01:04:37;14.80;73.20
28763;DHT22;15918;51.270;6.522;2023-03-24T01:07:04;14.80;73.20
28763;DHT22;15918;51.270;6.522;2023-03-24T01:09:30;14.80;73.20
28763;DHT22;15918;51.270;6.522;2023-03-24T01:11:56;14.80;73.20
28763;DHT22;15918;51.270;6.522;2023-03-24T01:14:22;14.80;73.30
28763;DHT22;15918;51.270;6.522;2023-03-24T01:16:48;14.80;73.30
28763;DHT22;15918;51.270;6.522;2023-03-24T01:19:14;14.90;73.40
28763;DHT22;15918;51.270;6.522;2023-03-24T01:21:39;14.80;73.50
28763;DHT22;15918;51.270;6.522;2023-03-24T01:24:06;14.80;73.60
28763;DHT22;15918;51.270;6.522;2023-03-24T01:26:32;14.80;73.60
28763;DHT22;15918;51.270;6.522;2023-03-24T01:28:58;14.80;73.70
28763;DHT22;15918;51.270;6.522;2023-03-24T01:31:24;14.80;73.70
28763;DHT22;15918;51.270;6.522;2023-03-24T01:33:49;14.80;73.60
28763;DHT22;15918;51.270;6.522;2023-03-24T01:36:15;14.80;73.60
28763;DHT22;15918;51.270;6.522;2023-03-24T01:38:41;14.80;73.60
28763;DHT22;15918;51.270;6.522;2023-03-24T01:41:06;14.80;73.70
28763;DHT22;15918;51.270;6.522;2023-03-24T01:43:33;14.80;73.80
28763;DHT22;15918;51.270;6.522;2023-03-24T01:46:20;14.80;73.80
28763;DHT22;15918;51.270;6.522;2023-03-24T01:48:54;14.80;73.80
28763;DHT22;15918;51.270;6.522;2023-03-24T01:51:31;14.80;73.90
28763;DHT22;15918;51.270;6.522;2023-03-24T01:54:06;14.80;73.80
28763;DHT22;15918;51.270;6.522;2023-03-24T01:56:35;14.80;73.90
28763;DHT22;15918;51.270;6.522;2023-03-24T01:59:09;14.80;73.90
28763;DHT22;15918;51.270;6.522;2023-03-24T02:01:35;14.80;73.90
28763;DHT22;15918;51.270;6.522;2023-03-24T02:04:03;14.80;74.00
28763;DHT22;15918;51.270;6.522;2023-03-24T02:06:32;14.80;74.00
28763;DHT22;15918;51.270;6.522;2023-03-24T02:08:59;14.80;74.80
28763;DHT22;15918;51.270;6.522;2023-03-24T02:11:31;14.80;74.00
28763;DHT22;15918;51.270;6.522;2023-03-24T02:13:57;14.80;74.10
28763;DHT22;15918;51.270;6.522;2023-03-24T02:16:47;14.80;74.10
28763;DHT22;15918;51.270;6.522;2023-03-24T02:22:39;14.80;74.20
28763;DHT22;15918;51.270;6.522;2023-03-24T02:28:15;14.80;74.10
28763;DHT22;15918;51.270;6.522;2023-03-24T02:31:26;14.80;74.30
28763;DHT22;15918;51.270;6.522;2023-03-24T02:37:22;14.80;74.20
28763;DHT22;15918;51.270;6.522;2023-03-24T02:45:36;14.80;74.40
28763;DHT22;15918;51.270;6.522;2023-03-24T02:51:07;14.80;74.50
28763;DHT22;15918;51.270;6.522;2023-03-24T02:59:04;14.80;74.60
28763;DHT22;15918;51.270;6.522;2023-03-24T03:01:39;14.80;74.80
28763;DHT22;15918;51.270;6.522;2023-03-24T03:04:11;14.80;74.70
28763;DHT22;15918;51.270;6.522;2023-03-24T03:06:39;14.80;74.80
28763;DHT22;15918;51.270;6.522;2023-03-24T03:09:11;14.80;74.80
28763;DHT22;15918;51.270;6.522;2023-03-24T03:11:40;14.80;74.80
28763;DHT22;15918;51.270;6.522;2023-03-24T03:16:58;14.90;74.80
28763;DHT22;15918;51.270;6.522;2023-03-24T03:19:40;14.90;74.80
28763;DHT22;15918;51.270;6.522;2023-03-24T03:22:12;14.90;74.80
28763;DHT22;15918;51.270;6.522;2023-03-24T03:24:41;14.90;74.90
28763;DHT22;15918;51.270;6.522;2023-03-24T03:27:18;14.90;74.80
28763;DHT22;15918;51.270;6.522;2023-03-24T03:29:49;14.90;74.70
28763;DHT22;15918;51.270;6.522;2023-03-24T03:32:22;14.90;74.80
28763;DHT22;15918;51.270;6.522;2023-03-24T03:35:25;14.90;74.80
28763;DHT22;15918;51.270;6.522;2023-03-24T03:38:19;14.90;74.70
28763;DHT22;15918;51.270;6.522;2023-03-24T03:40:52;14.90;74.70
28763;DHT22;15918;51.270;6.522;2023-03-24T03:43:20;14.90;74.90
28763;DHT22;15918;51.270;6.522;2023-03-24T03:45:46;14.90;75.00
28763;DHT22;15918;51.270;6.522;2023-03-24T03:48:12;15.00;75.10
28763;DHT22;15918;51.270;6.522;2023-03-24T03:50:38;14.90;75.00
28763;DHT22;15918;51.270;6.522;2023-03-24T03:53:05;14.90;75.00
28763;DHT22;15918;51.270;6.522;2023-03-24T03:55:31;14.90;74.90
28763;DHT22;15918;51.270;6.522;2023-03-24T03:57:58;15.00;75.20
28763;DHT22;15918;51.270;6.522;2023-03-24T04:00:24;15.00;75.40
28763;DHT22;15918;51.270;6.522;2023-03-24T04:06:04;15.00;75.70
28763;DHT22;15918;51.270;6.522;2023-03-24T04:08:47;15.00;75.90
28763;DHT22;15918;51.270;6.522;2023-03-24T04:11:53;15.00;75.90
28763;DHT22;15918;51.270;6.522;2023-03-24T04:17:05;14.90;76.50
28763;DHT22;15918;51.270;6.522;2023-03-24T04:25:47;14.90;76.80
28763;DHT22;15918;51.270;6.522;2023-03-24T04:28:07;14.90;76.90
28763;DHT22;15918;51.270;6.522;2023-03-24T04:30:44;14.90;76.90
28763;DHT22;15918;51.270;6.522;2023-03-24T04:36:21;14.90;76.70
28763;DHT22;15918;51.270;6.522;2023-03-24T04:38:52;14.90;76.80
28763;DHT22;15918;51.270;6.522;2023-03-24T04:41:21;14.90;76.80
28763;DHT22;15918;51.270;6.522;2023-03-24T04:43:50;14.90;76.80
28763;DHT22;15918;51.270;6.522;2023-03-24T04:46:16;14.90;76.70
28763;DHT22;15918;51.270;6.522;2023-03-24T04:48:44;14.90;76.60
28763;DHT22;15918;51.270;6.522;2023-03-24T04:51:13;14.90;77.30
28763;DHT22;15918;51.270;6.522;2023-03-24T04:53:40;14.90;76.50
28763;DHT22;15918;51.270;6.522;2023-03-24T04:56:26;14.90;76.30
28763;DHT22;15918;51.270;6.522;2023-03-24T04:58:53;14.90;76.00
28763;DHT22;15918;51.270;6.522;2023-03-24T05:01:19;14.80;76.00
28763;DHT22;15918;51.270;6.522;2023-03-24T05:03:48;14.80;75.80
28763;DHT22;15918;51.270;6.522;2023-03-24T05:06:14;14.80;75.50
28763;DHT22;15918;51.270;6.522;2023-03-24T05:08:39;14.80;75.30
28763;DHT22;15918;51.270;6.522;2023-03-24T05:11:06;14.80;75.20
28763;DHT22;15918;51.270;6.522;2023-03-24T05:13:31;14.80;74.90
28763;DHT22;15918;51.270;6.522;2023-03-24T05:15:57;14.80;74.70
28763;DHT22;15918;51.270;6.522;2023-03-24T05:18:23;14.80;74.40
28763;DHT22;15918;51.270;6.522;2023-03-24T05:20:49;14.70;74.10
28763;DHT22;15918;51.270;6.522;2023-03-24T05:23:15;14.70;73.80
28763;DHT22;15918;51.270;6.522;2023-03-24T05:25:41;14.70;73.50
28763;DHT22;15918;51.270;6.522;2023-03-24T05:28:06;14.70;73.30
28763;DHT22;15918;51.270;6.522;2023-03-24T05:30:32;14.70;73.20
28763;DHT22;15918;51.270;6.522;2023-03-24T05:32:58;14.60;73.00
28763;DHT22;15918;51.270;6.522;2023-03-24T05:35:23;14.70;73.00
28763;DHT22;15918;51.270;6.522;2023-03-24T05:37:49;14.60;72.70
28763;DHT22;15918;51.270;6.522;2023-03-24T05:40:15;14.60;72.70
28763;DHT22;15918;51.270;6.522;2023-03-24T05:42:41;14.60;72.50
28763;DHT22;15918;51.270;6.522;2023-03-24T05:45:08;14.60;72.30
28763;DHT22;15918;51.270;6.522;2023-03-24T05:47:34;14.60;72.10
28763;DHT22;15918;51.270;6.522;2023-03-24T05:49:59;14.50;71.80
28763;DHT22;15918;51.270;6.522;2023-03-24T05:52:25;14.50;71.50
28763;DHT22;15918;51.270;6.522;2023-03-24T05:54:51;14.50;71.20
28763;DHT22;15918;51.270;6.522;2023-03-24T05:57:18;14.50;70.80
28763;DHT22;15918;51.270;6.522;2023-03-24T05:59:43;14.50;70.60
28763;DHT22;15918;51.270;6.522;2023-03-24T06:02:09;14.50;70.40
28763;DHT22;15918;51.270;6.522;2023-03-24T06:04:35;14.40;70.20
28763;DHT22;15918;51.270;6.522;2023-03-24T06:07:01;14.40;70.10
28763;DHT22;15918;51.270;6.522;2023-03-24T06:09:29;14.40;70.00
28763;DHT22;15918;51.270;6.522;2023-03-24T06:12:01;14.40;69.80
28763;DHT22;15918;51.270;6.522;2023-03-24T06:14:26;14.40;69.90
28763;DHT22;15918;51.270;6.522;2023-03-24T06:16:52;14.40;69.90
28763;DHT22;15918;51.270;6.522;2023-03-24T06:19:18;14.40;70.00
28763;DHT22;15918;51.270;6.522;2023-03-24T06:21:47;14.40;69.90
28763;DHT22;15918;51.270;6.522;2023-03-24T06:24:18;14.40;69.60
28763;DHT22;15918;51.270;6.522;2023-03-24T06:26:44;14.40;69.50
28763;DHT22;15918;51.270;6.522;2023-03-24T06:29:10;14.40;69.40
28763;DHT22;15918;51.270;6.522;2023-03-24T06:31:37;14.30;69.20
28763;DHT22;15918;51.270;6.522;2023-03-24T06:34:04;14.30;69.20
28763;DHT22;15918;51.270;6.522;2023-03-24T06:36:30;14.30;69.20
28763;DHT22;15918;51.270;6.522;2023-03-24T06:38:55;14.30;69.00
28763;DHT22;15918;51.270;6.522;2023-03-24T06:41:21;14.30;68.90
28763;DHT22;15918;51.270;6.522;2023-03-24T06:43:47;14.30;69.00
28763;DHT22;15918;51.270;6.522;2023-03-24T06:46:13;14.30;69.00
28763;DHT22;15918;51.270;6.522;2023-03-24T06:48:39;14.30;69.00
28763;DHT22;15918;51.270;6.522;2023-03-24T06:51:05;14.30;69.10
28763;DHT22;15918;51.270;6.522;2023-03-24T06:53:31;14.30;69.10
28763;DHT22;15918;51.270;6.522;2023-03-24T06:55:56;14.40;69.10
28763;DHT22;15918;51.270;6.522;2023-03-24T06:58:22;14.30;69.10
28763;DHT22;15918;51.270;6.522;2023-03-24T07:00:47;14.30;69.20
28763;DHT22;15918;51.270;6.522;2023-03-24T07:03:15;14.30;69.20
28763;DHT22;15918;51.270;6.522;2023-03-24T07:05:43;14.30;69.10
28763;DHT22;15918;51.270;6.522;2023-03-24T07:08:10;14.40;69.10
28763;DHT22;15918;51.270;6.522;2023-03-24T07:10:37;14.40;69.10
28763;DHT22;15918;51.270;6.522;2023-03-24T07:13:04;14.40;69.10
28763;DHT22;15918;51.270;6.522;2023-03-24T07:15:30;14.40;69.20
28763;DHT22;15918;51.270;6.522;2023-03-24T07:17:56;14.40;69.10
28763;DHT22;15918;51.270;6.522;2023-03-24T07:20:22;14.40;69.20
28763;DHT22;15918;51.270;6.522;2023-03-24T07:22:48;14.50;69.40
28763;DHT22;15918;51.270;6.522;2023-03-24T07:25:14;14.50;69.40
28763;DHT22;15918;51.270;6.522;2023-03-24T07:27:44;14.50;69.40
28763;DHT22;15918;51.270;6.522;2023-03-24T07:30:10;14.50;69.40
28763;DHT22;15918;51.270;6.522;2023-03-24T07:32:36;14.60;69.50
28763;DHT22;15918;51.270;6.522;2023-03-24T07:35:05;14.60;69.50
28763;DHT22;15918;51.270;6.522;2023-03-24T07:37:31;14.60;69.50
28763;DHT22;15918;51.270;6.522;2023-03-24T07:39:56;14.60;69.50
28763;DHT22;15918;51.270;6.522;2023-03-24T07:42:23;14.60;69.50
28763;DHT22;15918;51.270;6.522;2023-03-24T07:44:49;14.70;69.40
28763;DHT22;15918;51.270;6.522;2023-03-24T07:47:15;14.70;69.30
28763;DHT22;15918;51.270;6.522;2023-03-24T07:49:40;14.70;69.20
28763;DHT22;15918;51.270;6.522;2023-03-24T07:52:06;14.70;69.10
28763;DHT22;15918;51.270;6.522;2023-03-24T07:54:32;14.80;69.00
28763;DHT22;15918;51.270;6.522;2023-03-24T07:57:01;14.80;68.90
28763;DHT22;15918;51.270;6.522;2023-03-24T07:59:26;14.80;68.80
28763;DHT22;15918;51.270;6.522;2023-03-24T08:01:52;14.90;68.70
28763;DHT22;15918;51.270;6.522;2023-03-24T08:04:18;14.90;68.70
28763;DHT22;15918;51.270;6.522;2023-03-24T08:06:44;14.90;68.40
28763;DHT22;15918;51.270;6.522;2023-03-24T08:09:11;14.90;68.90
28763;DHT22;15918;51.270;6.522;2023-03-24T08:11:36;14.90;68.00
28763;DHT22;15918;51.270;6.522;2023-03-24T08:14:02;15.00;67.90
28763;DHT22;15918;51.270;6.522;2023-03-24T08:16:28;15.00;67.80
28763;DHT22;15918;51.270;6.522;2023-03-24T08:18:54;15.00;67.80
28763;DHT22;15918;51.270;6.522;2023-03-24T08:21:23;15.10;67.70
28763;DHT22;15918;51.270;6.522;2023-03-24T08:23:49;15.00;67.50
28763;DHT22;15918;51.270;6.522;2023-03-24T08:26:14;15.00;67.40
28763;DHT22;15918;51.270;6.522;2023-03-24T08:28:40;15.10;67.20
28763;DHT22;15918;51.270;6.522;2023-03-24T08:31:06;15.10;67.10
28763;DHT22;15918;51.270;6.522;2023-03-24T08:33:32;15.10;67.00
28763;DHT22;15918;51.270;6.522;2023-03-24T08:35:58;15.10;66.90
28763;DHT22;15918;51.270;6.522;2023-03-24T08:38:26;15.10;66.90
28763;DHT22;15918;51.270;6.522;2023-03-24T08:40:55;15.10;66.90
28763;DHT22;15918;51.270;6.522;2023-03-24T08:43:22;15.10;67.00
28763;DHT22;15918;51.270;6.522;2023-03-24T08:45:49;15.20;67.00
28763;DHT22;15918;51.270;6.522;2023-03-24T08:48:14;15.20;66.90
28763;DHT22;15918;51.270;6.522;2023-03-24T08:50:41;15.20;66.80
28763;DHT22;15918;51.270;6.522;2023-03-24T08:53:08;15.20;66.90
28763;DHT22;15918;51.270;6.522;2023-03-24T08:55:35;15.20;66.90
28763;DHT22;15918;51.270;6.522;2023-03-24T08:58:06;15.30;67.00
28763;DHT22;15918;51.270;6.522;2023-03-24T09:00:32;15.40;66.90
28763;DHT22;15918;51.270;6.522;2023-03-24T09:02:57;15.30;66.70
28763;DHT22;15918;51.270;6.522;2023-03-24T09:05:25;15.30;66.70
28763;DHT22;15918;51.270;6.522;2023-03-24T09:07:51;15.40;66.60
28763;DHT22;15918;51.270;6.522;2023-03-24T09:10:18;15.30;66.50
28763;DHT22;15918;51.270;6.522;2023-03-24T09:12:45;15.40;66.30
28763;DHT22;15918;51.270;6.522;2023-03-24T09:15:12;15.40;66.30
28763;DHT22;15918;51.270;6.522;2023-03-24T09:17:38;15.50;66.20
28763;DHT22;15918;51.270;6.522;2023-03-24T09:20:05;15.40;66.10
28763;DHT22;15918;51.270;6.522;2023-03-24T09:22:41;15.40;65.80
28763;DHT22;15918;51.270;6.522;2023-03-24T09:25:09;15.40;66.10
28763;DHT22;15918;51.270;6.522;2023-03-24T09:27:35;15.40;66.10
28763;DHT22;15918;51.270;6.522;2023-03-24T09:30:01;15.50;65.70
28763;DHT22;15918;51.270;6.522;2023-03-24T09:32:27;15.50;65.40
28763;DHT22;15918;51.270;6.522;2023-03-24T09:34:52;15.50;65.00
28763;DHT22;15918;51.270;6.522;2023-03-24T09:37:18;15.50;65.00
28763;DHT22;15918;51.270;6.522;2023-03-24T09:39:44;15.50;65.00
28763;DHT22;15918;51.270;6.522;2023-03-24T09:42:21;15.60;65.00
28763;DHT22;15918;51.270;6.522;2023-03-24T09:44:58;15.50;64.50
28763;DHT22;15918;51.270;6.522;2023-03-24T09:47:38;15.60;64.50
28763;DHT22;15918;51.270;6.522;2023-03-24T09:50:16;15.60;64.20
28763;DHT22;15918;51.270;6.522;2023-03-24T09:52:43;15.60;64.20
28763;DHT22;15918;51.270;6.522;2023-03-24T09:55:18;15.60;64.10
28763;DHT22;15918;51.270;6.522;2023-03-24T09:57:47;15.60;63.90
28763;DHT22;15918;51.270;6.522;2023-03-24T10:02:46;15.60;63.70
28763;DHT22;15918;51.270;6.522;2023-03-24T10:05:38;15.60;63.70
28763;DHT22;15918;51.270;6.522;2023-03-24T10:08:14;15.60;63.50
28763;DHT22;15918;51.270;6.522;2023-03-24T10:10:58;15.60;63.60
28763;DHT22;15918;51.270;6.522;2023-03-24T10:22:18;15.60;62.70
28763;DHT22;15918;51.270;6.522;2023-03-24T10:27:39;15.60;62.30
28763;DHT22;15918;51.270;6.522;2023-03-24T10:30:18;15.60;62.30
28763;DHT22;15918;51.270;6.522;2023-03-24T10:32:44;15.70;62.40
28763;DHT22;15918;51.270;6.522;2023-03-24T10:35:23;15.70;62.40
28763;DHT22;15918;51.270;6.522;2023-03-24T10:37:50;15.70;62.10
28763;DHT22;15918;51.270;6.522;2023-03-24T10:40:18;15.70;62.00
28763;DHT22;15918;51.270;6.522;2023-03-24T10:42:47;15.70;62.00
28763;DHT22;15918;51.270;6.522;2023-03-24T10:45:19;15.70;61.90
28763;DHT22;15918;51.270;6.522;2023-03-24T10:47:50;15.70;62.00
28763;DHT22;15918;51.270;6.522;2023-03-24T10:50:15;15.70;62.20
28763;DHT22;15918;51.270;6.522;2023-03-24T10:52:43;15.70;62.20
28763;DHT22;15918;51.270;6.522;2023-03-24T10:55:19;15.70;62.20
28763;DHT22;15918;51.270;6.522;2023-03-24T10:57:49;15.80;62.20
28763;DHT22;15918;51.270;6.522;2023-03-24T11:00:29;15.80;62.20
28763;DHT22;15918;51.270;6.522;2023-03-24T11:03:05;15.80;62.20
28763;DHT22;15918;51.270;6.522;2023-03-24T11:05:35;15.80;62.30
28763;DHT22;15918;51.270;6.522;2023-03-24T11:08:27;15.80;62.20
28763;DHT22;15918;51.270;6.522;2023-03-24T11:10:56;15.80;62.10
28763;DHT22;15918;51.270;6.522;2023-03-24T11:16:12;15.80;62.20
28763;DHT22;15918;51.270;6.522;2023-03-24T11:18:58;15.90;62.10
28763;DHT22;15918;51.270;6.522;2023-03-24T11:21:27;15.90;61.60
28763;DHT22;15918;51.270;6.522;2023-03-24T11:23:57;15.90;61.60
28763;DHT22;15918;51.270;6.522;2023-03-24T11:26:34;15.90;61.30
28763;DHT22;15918;51.270;6.522;2023-03-24T11:29:14;15.90;60.90
28763;DHT22;15918;51.270;6.522;2023-03-24T11:31:53;15.90;60.80
28763;DHT22;15918;51.270;6.522;2023-03-24T11:34:23;15.90;60.70
28763;DHT22;15918;51.270;6.522;2023-03-24T11:36:55;15.90;60.70
28763;DHT22;15918;51.270;6.522;2023-03-24T11:39:22;15.90;60.60
28763;DHT22;15918;51.270;6.522;2023-03-24T11:42:09;15.90;60.60
28763;DHT22;15918;51.270;6.522;2023-03-24T11:47:14;15.90;60.40
28763;DHT22;15918;51.270;6.522;2023-03-24T11:52:32;16.00;60.20
28763;DHT22;15918;51.270;6.522;2023-03-24T11:54:58;15.90;60.20
28763;DHT22;15918;51.270;6.522;2023-03-24T11:57:54;16.00;60.30
28763;DHT22;15918;51.270;6.522;2023-03-24T12:00:26;16.00;60.40
28763;DHT22;15918;51.270;6.522;2023-03-24T12:05:50;16.00;60.60
28763;DHT22;15918;51.270;6.522;2023-03-24T12:08:28;16.00;60.50
28763;DHT22;15918;51.270;6.522;2023-03-24T12:11:10;16.00;60.40
28763;DHT22;15918;51.270;6.522;2023-03-24T12:13:43;16.00;60.40
28763;DHT22;15918;51.270;6.522;2023-03-24T12:19:26;16.10;60.50
28763;DHT22;15918;51.270;6.522;2023-03-24T12:27:01;16.20;60.20
28763;DHT22;15918;51.270;6.522;2023-03-24T12:29:48;16.20;60.00
28763;DHT22;15918;51.270;6.522;2023-03-24T12:35:28;16.20;59.50
28763;DHT22;15918;51.270;6.522;2023-03-24T12:38:07;16.20;59.30
28763;DHT22;15918;51.270;6.522;2023-03-24T12:40:52;16.20;59.30
28763;DHT22;15918;51.270;6.522;2023-03-24T12:43:44;16.20;59.30
28763;DHT22;15918;51.270;6.522;2023-03-24T12:52:18;16.20;59.50
28763;DHT22;15918;51.270;6.522;2023-03-24T12:57:17;16.30;59.60
28763;DHT22;15918;51.270;6.522;2023-03-24T13:00:33;16.20;59.30
28763;DHT22;15918;51.270;6.522;2023-03-24T13:02:44;16.20;59.10
28763;DHT22;15918;51.270;6.522;2023-03-24T13:05:18;16.20;58.90
28763;DHT22;15918;51.270;6.522;2023-03-24T13:07:48;16.20;58.90
28763;DHT22;15918;51.270;6.522;2023-03-24T13:10:26;16.20;58.60
28763;DHT22;15918;51.270;6.522;2023-03-24T13:15:55;16.30;58.10
28763;DHT22;15918;51.270;6.522;2023-03-24T13:21:05;16.20;58.10
28763;DHT22;15918;51.270;6.522;2023-03-24T13:26:36;16.20;58.40
28763;DHT22;15918;51.270;6.522;2023-03-24T13:29:22;16.20;58.90
28763;DHT22;15918;51.270;6.522;2023-03-24T13:31:59;16.20;58.40
28763;DHT22;15918;51.270;6.522;2023-03-24T13:34:33;16.20;58.50
28763;DHT22;15918;51.270;6.522;2023-03-24T13:37:09;16.20;58.50
28763;DHT22;15918;51.270;6.522;2023-03-24T13:39:37;16.20;58.50
28763;DHT22;15918;51.270;6.522;2023-03-24T13:42:04;16.20;58.40
28763;DHT22;15918;51.270;6.522;2023-03-24T13:44:38;16.30;58.50
28763;DHT22;15918;51.270;6.522;2023-03-24T13:49:33;16.30;58.20
28763;DHT22;15918;51.270;6.522;2023-03-24T13:52:04;16.30;58.10
28763;DHT22;15918;51.270;6.522;2023-03-24T13:54:32;16.30;58.00
28763;DHT22;15918;51.270;6.522;2023-03-24T13:57:11;16.30;57.90
28763;DHT22;15918;51.270;6.522;2023-03-24T14:08:12;16.30;57.80
28763;DHT22;15918;51.270;6.522;2023-03-24T14:10:45;16.30;58.00
28763;DHT22;15918;51.270;6.522;2023-03-24T14:15:55;16.30;58.60
28763;DHT22;15918;51.270;6.522;2023-03-24T14:23:40;16.30;59.20
28763;DHT22;15918;51.270;6.522;2023-03-24T14:28:47;16.30;59.80
28763;DHT22;15918;51.270;6.522;2023-03-24T14:33:58;16.30;60.80
28763;DHT22;15918;51.270;6.522;2023-03-24T14:36:39;16.30;61.30
28763;DHT22;15918;51.270;6.522;2023-03-24T14:39:43;16.30;61.70
28763;DHT22;15918;51.270;6.522;2023-03-24T14:44:57;16.30;62.10
28763;DHT22;15918;51.270;6.522;2023-03-24T14:47:30;16.30;62.30
28763;DHT22;15918;51.270;6.522;2023-03-24T14:49:58;16.30;62.30
28763;DHT22;15918;51.270;6.522;2023-03-24T14:54:56;16.30;62.20
28763;DHT22;15918;51.270;6.522;2023-03-24T14:57:46;16.30;62.00
28763;DHT22;15918;51.270;6.522;2023-03-24T15:00:20;16.30;61.80
28763;DHT22;15918;51.270;6.522;2023-03-24T15:05:40;16.30;61.60
28763;DHT22;15918;51.270;6.522;2023-03-24T15:08:22;16.30;61.70
28763;DHT22;15918;51.270;6.522;2023-03-24T15:11:01;16.30;61.60
28763;DHT22;15918;51.270;6.522;2023-03-24T15:13:40;16.30;61.50
28763;DHT22;15918;51.270;6.522;2023-03-24T15:18:48;16.30;61.50
28763;DHT22;15918;51.270;6.522;2023-03-24T15:21:58;16.20;61.50
28763;DHT22;15918;51.270;6.522;2023-03-24T15:26:54;16.20;61.60
28763;DHT22;15918;51.270;6.522;2023-03-24T15:29:20;16.20;61.90
28763;DHT22;15918;51.270;6.522;2023-03-24T15:31:46;16.20;62.10
28763;DHT22;15918;51.270;6.522;2023-03-24T15:34:35;16.20;62.50
28763;DHT22;15918;51.270;6.522;2023-03-24T15:37:17;16.20;63.00
28763;DHT22;15918;51.270;6.522;2023-03-24T15:39:51;16.10;63.40
28763;DHT22;15918;51.270;6.522;2023-03-24T15:42:20;16.00;63.80
28763;DHT22;15918;51.270;6.522;2023-03-24T15:44:46;16.00;64.00
28763;DHT22;15918;51.270;6.522;2023-03-24T15:47:24;15.90;64.00
28763;DHT22;15918;51.270;6.522;2023-03-24T15:49:55;15.90;64.10
28763;DHT22;15918;51.270;6.522;2023-03-24T15:54:57;15.90;64.20
28763;DHT22;15918;51.270;6.522;2023-03-24T15:57:24;15.90;64.40
28763;DHT22;15918;51.270;6.522;2023-03-24T16:02:45;15.80;64.50
28763;DHT22;15918;51.270;6.522;2023-03-24T16:05:31;15.80;64.60
28763;DHT22;15918;51.270;6.522;2023-03-24T16:08:05;15.80;64.70
28763;DHT22;15918;51.270;6.522;2023-03-24T16:10:38;15.80;64.90
28763;DHT22;15918;51.270;6.522;2023-03-24T16:13:22;15.80;65.00
28763;DHT22;15918;51.270;6.522;2023-03-24T16:15:55;15.80;65.10
28763;DHT22;15918;51.270;6.522;2023-03-24T16:18:28;15.80;65.10
28763;DHT22;15918;51.270;6.522;2023-03-24T16:20:57;15.70;65.40
28763;DHT22;15918;51.270;6.522;2023-03-24T16:23:23;15.70;65.00
28763;DHT22;15918;51.270;6.522;2023-03-24T16:25:48;15.70;65.00
28763;DHT22;15918;51.270;6.522;2023-03-24T16:28:17;15.70;65.00
28763;DHT22;15918;51.270;6.522;2023-03-24T16:30:44;15.70;65.10
28763;DHT22;15918;51.270;6.522;2023-03-24T16:33:10;15.70;65.10
28763;DHT22;15918;51.270;6.522;2023-03-24T16:35:37;15.60;65.80
28763;DHT22;15918;51.270;6.522;2023-03-24T16:38:03;15.60;65.00
28763;DHT22;15918;51.270;6.522;2023-03-24T16:40:47;15.70;65.10
28763;DHT22;15918;51.270;6.522;2023-03-24T16:43:13;15.60;64.90
28763;DHT22;15918;51.270;6.522;2023-03-24T16:45:40;15.60;65.00
28763;DHT22;15918;51.270;6.522;2023-03-24T16:48:06;15.60;64.90
28763;DHT22;15918;51.270;6.522;2023-03-24T16:50:35;15.60;64.80
28763;DHT22;15918;51.270;6.522;2023-03-24T16:53:01;15.50;64.60
28763;DHT22;15918;51.270;6.522;2023-03-24T16:55:30;15.50;64.60
28763;DHT22;15918;51.270;6.522;2023-03-24T16:57:55;15.50;64.50
28763;DHT22;15918;51.270;6.522;2023-03-24T17:00:21;15.50;64.50
28763;DHT22;15918;51.270;6.522;2023-03-24T17:02:48;15.50;64.30
28763;DHT22;15918;51.270;6.522;2023-03-24T17:05:25;15.50;64.30
28763;DHT22;15918;51.270;6.522;2023-03-24T17:07:55;15.50;64.10
28763;DHT22;15918;51.270;6.522;2023-03-24T17:10:21;15.50;64.10
28763;DHT22;15918;51.270;6.522;2023-03-24T17:12:49;15.40;64.10
28763;DHT22;15918;51.270;6.522;2023-03-24T17:15:26;15.40;64.10
28763;DHT22;15918;51.270;6.522;2023-03-24T17:17:52;15.40;64.00
28763;DHT22;15918;51.270;6.522;2023-03-24T17:20:20;15.40;64.20
28763;DHT22;15918;51.270;6.522;2023-03-24T17:22:47;15.40;64.10
28763;DHT22;15918;51.270;6.522;2023-03-24T17:25:17;15.50;64.20
28763;DHT22;15918;51.270;6.522;2023-03-24T17:27:44;15.40;64.10
28763;DHT22;15918;51.270;6.522;2023-03-24T17:30:15;15.40;64.20
28763;DHT22;15918;51.270;6.522;2023-03-24T17:32:41;15.40;64.10
28763;DHT22;15918;51.270;6.522;2023-03-24T17:35:10;15.40;64.10
28763;DHT22;15918;51.270;6.522;2023-03-24T17:37:36;15.30;64.00
28763;DHT22;15918;51.270;6.522;2023-03-24T17:40:03;15.30;64.10
28763;DHT22;15918;51.270;6.522;2023-03-24T17:42:34;15.30;64.10
28763;DHT22;15918;51.270;6.522;2023-03-24T17:45:00;15.30;64.10
28763;DHT22;15918;51.270;6.522;2023-03-24T17:47:25;15.30;64.20
28763;DHT22;15918;51.270;6.522;2023-03-24T17:49:51;15.30;64.30
28763;DHT22;15918;51.270;6.522;2023-03-24T17:52:16;15.30;64.30
28763;DHT22;15918;51.270;6.522;2023-03-24T17:54:42;15.30;64.40
28763;DHT22;15918;51.270;6.522;2023-03-24T17:57:08;15.20;64.40
28763;DHT22;15918;51.270;6.522;2023-03-24T17:59:34;15.20;64.50
28763;DHT22;15918;51.270;6.522;2023-03-24T18:02:01;15.20;64.60
28763;DHT22;15918;51.270;6.522;2023-03-24T18:04:28;15.20;64.60
28763;DHT22;15918;51.270;6.522;2023-03-24T18:06:53;15.20;64.70